sensor_id;sensor_type;location;lat;lon;timestamp;P1;durP1;ratioP1;P2;durP2;ratioP2
68792;SDS011;55778;54.346;10.210;2023-07-24T00:02:14;9.73;;;6.65;;
68792;SDS011;55778;54.346;10.210;2023-07-24T00:04:39;9.48;;;6.22;;
68792;SDS011;55778;54.346;10.210;2023-07-24T00:07:05;12.65;;;7.15;;
68792;SDS011;55778;54.346;10.210;2023-07-24T00:09:30;11.05;;;6.03;;
68792;SDS011;55778;54.346;10.210;2023-07-24T00:11:55;9.60;;;6.10;;
68792;SDS011;55778;54.346;10.210;2023-07-24T00:14:21;10.27;;;6.45;;
68792;SDS011;55778;54.346;10.210;2023-07-24T00:16:46;10.00;;;6.38;;
68792;SDS011;55778;54.346;10.210;2023-07-24T00:19:12;13.55;;;7.07;;
68792;SDS011;55778;54.346;10.210;2023-07-24T00:21:37;11.35;;;6.93;;
68792;SDS011;55778;54.346;10.210;2023-07-24T00:24:02;10.27;;;6.20;;
68792;SDS011;55778;54.346;10.210;2023-07-24T00:26:28;9.25;;;5.90;;
68792;SDS011;55778;54.346;10.210;2023-07-24T00:28:53;11.57;;;6.32;;
68792;SDS011;55778;54.346;10.210;2023-07-24T00:31:19;10.43;;;6.30;;
68792;SDS011;55778;54.346;10.210;2023-07-24T00:33:44;9.77;;;6.75;;
68792;SDS011;55778;54.346;10.210;2023-07-24T00:36:09;12.50;;;6.15;;
68792;SDS011;55778;54.346;10.210;2023-07-24T00:38:35;11.85;;;6.82;;
68792;SDS011;55778;54.346;10.210;2023-07-24T00:41:00;10.73;;;6.45;;
68792;SDS011;55778;54.346;10.210;2023-07-24T00:43:25;13.35;;;6.88;;
68792;SDS011;55778;54.346;10.210;2023-07-24T00:45:51;10.63;;;6.93;;
68792;SDS011;55778;54.346;10.210;2023-07-24T00:48:16;11.57;;;6.60;;
68792;SDS011;55778;54.346;10.210;2023-07-24T00:50:42;10.95;;;6.78;;
68792;SDS011;55778;54.346;10.210;2023-07-24T00:53:10;12.73;;;7.18;;
68792;SDS011;55778;54.346;10.210;2023-07-24T00:55:36;12.95;;;7.15;;
68792;SDS011;55778;54.346;10.210;2023-07-24T00:58:02;9.88;;;6.95;;
68792;SDS011;55778;54.346;10.210;2023-07-24T01:00:28;11.02;;;6.50;;
68792;SDS011;55778;54.346;10.210;2023-07-24T01:02:54;11.73;;;6.93;;
68792;SDS011;55778;54.346;10.210;2023-07-24T01:05:21;10.50;;;6.65;;
68792;SDS011;55778;54.346;10.210;2023-07-24T01:07:49;11.80;;;6.80;;
68792;SDS011;55778;54.346;10.210;2023-07-24T01:10:15;9.60;;;6.38;;
68792;SDS011;55778;54.346;10.210;2023-07-24T01:15:30;10.45;;;6.53;;
68792;SDS011;55778;54.346;10.210;2023-07-24T01:18:10;9.68;;;6.13;;
68792;SDS011;55778;54.346;10.210;2023-07-24T01:20:37;9.98;;;6.57;;
68792;SDS011;55778;54.346;10.210;2023-07-24T01:26:00;11.93;;;6.85;;
68792;SDS011;55778;54.346;10.210;2023-07-24T01:28:29;10.60;;;6.55;;
68792;SDS011;55778;54.346;10.210;2023-07-24T01:30:54;10.65;;;6.30;;
68792;SDS011;55778;54.346;10.210;2023-07-24T01:33:21;11.10;;;6.13;;
68792;SDS011;55778;54.346;10.210;2023-07-24T01:35:50;11.25;;;6.30;;
68792;SDS011;55778;54.346;10.210;2023-07-24T01:38:19;11.65;;;6.85;;
68792;SDS011;55778;54.346;10.210;2023-07-24T01:40:46;10.45;;;6.50;;
68792;SDS011;55778;54.346;10.210;2023-07-24T01:43:12;11.93;;;7.00;;
68792;SDS011;55778;54.346;10.210;2023-07-24T01:45:38;11.50;;;7.03;;
68792;SDS011;55778;54.346;10.210;2023-07-24T01:48:04;11.73;;;7.20;;
68792;SDS011;55778;54.346;10.210;2023-07-24T01:50:30;11.75;;;7.10;;
68792;SDS011;55778;54.346;10.210;2023-07-24T01:52:55;14.15;;;6.75;;
68792;SDS011;55778;54.346;10.210;2023-07-24T01:55:21;14.63;;;7.20;;
68792;SDS011;55778;54.346;10.210;2023-07-24T01:57:46;13.05;;;7.45;;
68792;SDS011;55778;54.346;10.210;2023-07-24T02:00:12;14.48;;;7.57;;
68792;SDS011;55778;54.346;10.210;2023-07-24T02:02:37;12.80;;;6.60;;
68792;SDS011;55778;54.346;10.210;2023-07-24T02:05:03;11.85;;;7.40;;
68792;SDS011;55778;54.346;10.210;2023-07-24T02:07:28;11.52;;;6.72;;
68792;SDS011;55778;54.346;10.210;2023-07-24T02:09:54;13.57;;;7.15;;
68792;SDS011;55778;54.346;10.210;2023-07-24T02:12:19;12.18;;;7.25;;
68792;SDS011;55778;54.346;10.210;2023-07-24T02:14:45;11.20;;;6.50;;
68792;SDS011;55778;54.346;10.210;2023-07-24T02:17:13;12.77;;;7.03;;
68792;SDS011;55778;54.346;10.210;2023-07-24T02:19:38;10.63;;;6.50;;
68792;SDS011;55778;54.346;10.210;2023-07-24T02:22:03;12.23;;;7.32;;
68792;SDS011;55778;54.346;10.210;2023-07-24T02:24:29;14.52;;;7.57;;
68792;SDS011;55778;54.346;10.210;2023-07-24T02:26:54;12.18;;;7.10;;
68792;SDS011;55778;54.346;10.210;2023-07-24T02:29:19;12.20;;;7.75;;
68792;SDS011;55778;54.346;10.210;2023-07-24T02:31:45;13.75;;;7.43;;
68792;SDS011;55778;54.346;10.210;2023-07-24T02:34:10;11.85;;;7.07;;
68792;SDS011;55778;54.346;10.210;2023-07-24T02:36:36;14.35;;;7.70;;
68792;SDS011;55778;54.346;10.210;2023-07-24T02:39:01;12.02;;;7.20;;
68792;SDS011;55778;54.346;10.210;2023-07-24T02:41:26;13.35;;;7.63;;
68792;SDS011;55778;54.346;10.210;2023-07-24T02:43:52;10.27;;;6.95;;
68792;SDS011;55778;54.346;10.210;2023-07-24T02:46:17;10.80;;;6.82;;
68792;SDS011;55778;54.346;10.210;2023-07-24T02:48:42;13.32;;;7.18;;
68792;SDS011;55778;54.346;10.210;2023-07-24T02:51:08;11.07;;;7.30;;
68792;SDS011;55778;54.346;10.210;2023-07-24T02:53:33;9.93;;;6.55;;
68792;SDS011;55778;54.346;10.210;2023-07-24T02:56:00;12.88;;;7.10;;
68792;SDS011;55778;54.346;10.210;2023-07-24T02:58:27;13.93;;;7.18;;
68792;SDS011;55778;54.346;10.210;2023-07-24T03:00:52;11.70;;;7.20;;
68792;SDS011;55778;54.346;10.210;2023-07-24T03:03:18;10.95;;;6.60;;
68792;SDS011;55778;54.346;10.210;2023-07-24T03:05:43;10.93;;;7.07;;
68792;SDS011;55778;54.346;10.210;2023-07-24T03:08:08;11.93;;;7.75;;
68792;SDS011;55778;54.346;10.210;2023-07-24T03:10:34;10.32;;;6.45;;
68792;SDS011;55778;54.346;10.210;2023-07-24T03:12:59;11.10;;;6.80;;
68792;SDS011;55778;54.346;10.210;2023-07-24T03:15:25;12.50;;;7.03;;
68792;SDS011;55778;54.346;10.210;2023-07-24T03:17:50;13.70;;;7.32;;
68792;SDS011;55778;54.346;10.210;2023-07-24T03:20:16;13.93;;;7.43;;
68792;SDS011;55778;54.346;10.210;2023-07-24T03:22:44;12.40;;;7.28;;
68792;SDS011;55778;54.346;10.210;2023-07-24T03:25:09;11.82;;;7.15;;
68792;SDS011;55778;54.346;10.210;2023-07-24T03:27:35;12.25;;;7.20;;
68792;SDS011;55778;54.346;10.210;2023-07-24T03:30:00;12.27;;;6.72;;
68792;SDS011;55778;54.346;10.210;2023-07-24T03:32:26;9.73;;;6.90;;
68792;SDS011;55778;54.346;10.210;2023-07-24T03:34:52;9.85;;;6.97;;
68792;SDS011;55778;54.346;10.210;2023-07-24T03:37:17;10.60;;;6.35;;
68792;SDS011;55778;54.346;10.210;2023-07-24T03:39:43;11.50;;;6.50;;
68792;SDS011;55778;54.346;10.210;2023-07-24T03:42:11;11.90;;;7.03;;
68792;SDS011;55778;54.346;10.210;2023-07-24T03:44:39;10.35;;;6.47;;
68792;SDS011;55778;54.346;10.210;2023-07-24T03:47:05;11.35;;;6.95;;
68792;SDS011;55778;54.346;10.210;2023-07-24T03:49:31;11.15;;;6.50;;
68792;SDS011;55778;54.346;10.210;2023-07-24T03:51:56;12.75;;;6.40;;
68792;SDS011;55778;54.346;10.210;2023-07-24T03:54:21;11.48;;;6.68;;
68792;SDS011;55778;54.346;10.210;2023-07-24T03:56:47;11.82;;;6.70;;
68792;SDS011;55778;54.346;10.210;2023-07-24T03:59:12;12.57;;;6.40;;
68792;SDS011;55778;54.346;10.210;2023-07-24T04:01:37;12.43;;;6.18;;
68792;SDS011;55778;54.346;10.210;2023-07-24T04:04:03;10.32;;;6.47;;
68792;SDS011;55778;54.346;10.210;2023-07-24T04:06:28;10.05;;;6.20;;
68792;SDS011;55778;54.346;10.210;2023-07-24T04:08:54;9.10;;;6.10;;
68792;SDS011;55778;54.346;10.210;2023-07-24T04:11:19;9.35;;;6.63;;
68792;SDS011;55778;54.346;10.210;2023-07-24T04:13:44;10.05;;;5.82;;
68792;SDS011;55778;54.346;10.210;2023-07-24T04:16:10;11.40;;;6.35;;
68792;SDS011;55778;54.346;10.210;2023-07-24T04:18:35;9.02;;;6.00;;
68792;SDS011;55778;54.346;10.210;2023-07-24T04:21:00;10.68;;;6.35;;
68792;SDS011;55778;54.346;10.210;2023-07-24T04:23:26;11.43;;;6.50;;
68792;SDS011;55778;54.346;10.210;2023-07-24T04:25:51;12.60;;;7.10;;
68792;SDS011;55778;54.346;10.210;2023-07-24T04:28:16;10.55;;;6.40;;
68792;SDS011;55778;54.346;10.210;2023-07-24T04:30:42;12.27;;;6.88;;
68792;SDS011;55778;54.346;10.210;2023-07-24T04:33:07;9.77;;;6.53;;
68792;SDS011;55778;54.346;10.210;2023-07-24T04:35:33;12.82;;;6.40;;
68792;SDS011;55778;54.346;10.210;2023-07-24T04:37:58;9.98;;;6.07;;
68792;SDS011;55778;54.346;10.210;2023-07-24T04:40:24;12.23;;;6.72;;
68792;SDS011;55778;54.346;10.210;2023-07-24T04:42:49;11.15;;;6.13;;
68792;SDS011;55778;54.346;10.210;2023-07-24T04:45:15;13.02;;;6.25;;
68792;SDS011;55778;54.346;10.210;2023-07-24T04:47:40;13.23;;;6.32;;
68792;SDS011;55778;54.346;10.210;2023-07-24T04:50:05;10.82;;;6.22;;
68792;SDS011;55778;54.346;10.210;2023-07-24T04:52:31;12.13;;;6.30;;
68792;SDS011;55778;54.346;10.210;2023-07-24T04:54:57;11.27;;;6.53;;
68792;SDS011;55778;54.346;10.210;2023-07-24T04:57:22;11.10;;;6.97;;
68792;SDS011;55778;54.346;10.210;2023-07-24T04:59:47;12.00;;;6.30;;
68792;SDS011;55778;54.346;10.210;2023-07-24T05:02:13;11.65;;;6.38;;
68792;SDS011;55778;54.346;10.210;2023-07-24T05:04:38;12.55;;;6.38;;
68792;SDS011;55778;54.346;10.210;2023-07-24T05:07:04;11.88;;;6.05;;
68792;SDS011;55778;54.346;10.210;2023-07-24T05:09:29;12.48;;;6.32;;
68792;SDS011;55778;54.346;10.210;2023-07-24T05:11:54;12.10;;;6.43;;
68792;SDS011;55778;54.346;10.210;2023-07-24T05:14:20;13.65;;;6.65;;
68792;SDS011;55778;54.346;10.210;2023-07-24T05:16:45;10.85;;;6.53;;
68792;SDS011;55778;54.346;10.210;2023-07-24T05:19:10;11.75;;;6.25;;
68792;SDS011;55778;54.346;10.210;2023-07-24T05:21:36;10.73;;;6.18;;
68792;SDS011;55778;54.346;10.210;2023-07-24T05:24:01;11.25;;;6.40;;
68792;SDS011;55778;54.346;10.210;2023-07-24T05:26:26;11.20;;;6.35;;
68792;SDS011;55778;54.346;10.210;2023-07-24T05:28:52;12.30;;;6.35;;
68792;SDS011;55778;54.346;10.210;2023-07-24T05:31:18;12.05;;;6.30;;
68792;SDS011;55778;54.346;10.210;2023-07-24T05:33:43;11.43;;;6.05;;
68792;SDS011;55778;54.346;10.210;2023-07-24T05:36:09;13.45;;;6.35;;
68792;SDS011;55778;54.346;10.210;2023-07-24T05:38:34;11.10;;;6.53;;
68792;SDS011;55778;54.346;10.210;2023-07-24T05:41:03;13.43;;;6.55;;
68792;SDS011;55778;54.346;10.210;2023-07-24T05:43:29;9.45;;;6.15;;
68792;SDS011;55778;54.346;10.210;2023-07-24T05:45:58;12.88;;;6.30;;
68792;SDS011;55778;54.346;10.210;2023-07-24T05:48:26;11.48;;;5.88;;
68792;SDS011;55778;54.346;10.210;2023-07-24T05:50:52;9.40;;;5.88;;
68792;SDS011;55778;54.346;10.210;2023-07-24T05:53:17;11.30;;;5.88;;
68792;SDS011;55778;54.346;10.210;2023-07-24T05:55:42;13.45;;;6.40;;
68792;SDS011;55778;54.346;10.210;2023-07-24T05:58:09;12.23;;;6.18;;
68792;SDS011;55778;54.346;10.210;2023-07-24T06:00:34;9.75;;;6.00;;
68792;SDS011;55778;54.346;10.210;2023-07-24T06:03:01;12.57;;;6.03;;
68792;SDS011;55778;54.346;10.210;2023-07-24T06:05:27;11.80;;;6.30;;
68792;SDS011;55778;54.346;10.210;2023-07-24T06:07:52;10.40;;;6.28;;
68792;SDS011;55778;54.346;10.210;2023-07-24T06:10:18;11.30;;;6.30;;
68792;SDS011;55778;54.346;10.210;2023-07-24T06:12:43;11.85;;;6.07;;
68792;SDS011;55778;54.346;10.210;2023-07-24T06:15:08;11.15;;;6.10;;
68792;SDS011;55778;54.346;10.210;2023-07-24T06:17:34;15.10;;;6.22;;
68792;SDS011;55778;54.346;10.210;2023-07-24T06:20:00;11.05;;;6.15;;
68792;SDS011;55778;54.346;10.210;2023-07-24T06:22:25;11.27;;;6.00;;
68792;SDS011;55778;54.346;10.210;2023-07-24T06:24:50;10.73;;;5.72;;
68792;SDS011;55778;54.346;10.210;2023-07-24T06:27:16;11.52;;;6.63;;
68792;SDS011;55778;54.346;10.210;2023-07-24T06:29:41;11.57;;;6.50;;
68792;SDS011;55778;54.346;10.210;2023-07-24T06:32:07;9.23;;;6.22;;
68792;SDS011;55778;54.346;10.210;2023-07-24T06:34:33;10.00;;;6.15;;
68792;SDS011;55778;54.346;10.210;2023-07-24T06:36:58;12.63;;;6.68;;
68792;SDS011;55778;54.346;10.210;2023-07-24T06:39:24;10.82;;;6.57;;
68792;SDS011;55778;54.346;10.210;2023-07-24T06:41:52;14.18;;;6.82;;
68792;SDS011;55778;54.346;10.210;2023-07-24T06:44:18;14.30;;;6.97;;
68792;SDS011;55778;54.346;10.210;2023-07-24T06:46:43;11.48;;;6.40;;
68792;SDS011;55778;54.346;10.210;2023-07-24T06:49:09;10.93;;;6.70;;
68792;SDS011;55778;54.346;10.210;2023-07-24T06:51:35;11.90;;;7.03;;
68792;SDS011;55778;54.346;10.210;2023-07-24T06:54:00;11.80;;;7.10;;
68792;SDS011;55778;54.346;10.210;2023-07-24T06:56:26;12.82;;;6.95;;
68792;SDS011;55778;54.346;10.210;2023-07-24T06:58:51;11.38;;;6.57;;
68792;SDS011;55778;54.346;10.210;2023-07-24T07:01:16;10.55;;;6.10;;
68792;SDS011;55778;54.346;10.210;2023-07-24T07:03:42;12.38;;;6.47;;
68792;SDS011;55778;54.346;10.210;2023-07-24T07:06:08;12.00;;;7.30;;
68792;SDS011;55778;54.346;10.210;2023-07-24T07:08:35;13.02;;;7.28;;
68792;SDS011;55778;54.346;10.210;2023-07-24T07:11:01;11.68;;;6.68;;
68792;SDS011;55778;54.346;10.210;2023-07-24T07:13:27;11.52;;;6.90;;
68792;SDS011;55778;54.346;10.210;2023-07-24T07:15:53;12.25;;;6.75;;
68792;SDS011;55778;54.346;10.210;2023-07-24T07:18:18;9.85;;;6.68;;
68792;SDS011;55778;54.346;10.210;2023-07-24T07:20:47;13.38;;;7.07;;
68792;SDS011;55778;54.346;10.210;2023-07-24T07:23:14;11.88;;;6.65;;
68792;SDS011;55778;54.346;10.210;2023-07-24T07:25:40;12.52;;;7.03;;
68792;SDS011;55778;54.346;10.210;2023-07-24T07:28:05;11.40;;;7.20;;
68792;SDS011;55778;54.346;10.210;2023-07-24T07:30:31;12.90;;;7.18;;
68792;SDS011;55778;54.346;10.210;2023-07-24T07:32:56;13.27;;;7.03;;
68792;SDS011;55778;54.346;10.210;2023-07-24T07:35:22;13.55;;;7.45;;
68792;SDS011;55778;54.346;10.210;2023-07-24T07:37:47;11.15;;;7.28;;
68792;SDS011;55778;54.346;10.210;2023-07-24T07:40:12;11.38;;;7.30;;
68792;SDS011;55778;54.346;10.210;2023-07-24T07:42:38;11.50;;;7.47;;
68792;SDS011;55778;54.346;10.210;2023-07-24T07:45:03;10.60;;;7.35;;
68792;SDS011;55778;54.346;10.210;2023-07-24T07:47:29;11.13;;;7.22;;
68792;SDS011;55778;54.346;10.210;2023-07-24T07:49:55;12.00;;;7.95;;
68792;SDS011;55778;54.346;10.210;2023-07-24T07:52:20;12.45;;;7.75;;
68792;SDS011;55778;54.346;10.210;2023-07-24T07:54:47;12.20;;;7.55;;
68792;SDS011;55778;54.346;10.210;2023-07-24T07:57:13;10.93;;;7.68;;
68792;SDS011;55778;54.346;10.210;2023-07-24T07:59:39;12.65;;;8.32;;
68792;SDS011;55778;54.346;10.210;2023-07-24T08:02:04;13.75;;;8.55;;
68792;SDS011;55778;54.346;10.210;2023-07-24T08:04:30;12.93;;;8.45;;
68792;SDS011;55778;54.346;10.210;2023-07-24T08:06:55;12.30;;;8.18;;
68792;SDS011;55778;54.346;10.210;2023-07-24T08:09:20;11.82;;;8.07;;
68792;SDS011;55778;54.346;10.210;2023-07-24T08:11:47;14.27;;;8.30;;
68792;SDS011;55778;54.346;10.210;2023-07-24T08:14:12;12.15;;;7.95;;
68792;SDS011;55778;54.346;10.210;2023-07-24T08:16:38;13.05;;;8.57;;
68792;SDS011;55778;54.346;10.210;2023-07-24T08:19:03;15.18;;;8.80;;
68792;SDS011;55778;54.346;10.210;2023-07-24T08:21:28;13.13;;;8.77;;
68792;SDS011;55778;54.346;10.210;2023-07-24T08:23:54;14.57;;;9.35;;
68792;SDS011;55778;54.346;10.210;2023-07-24T08:26:19;12.43;;;8.82;;
68792;SDS011;55778;54.346;10.210;2023-07-24T08:28:44;13.20;;;9.27;;
68792;SDS011;55778;54.346;10.210;2023-07-24T08:31:10;13.60;;;9.07;;
68792;SDS011;55778;54.346;10.210;2023-07-24T08:33:35;15.98;;;9.43;;
68792;SDS011;55778;54.346;10.210;2023-07-24T08:36:01;15.35;;;9.48;;
68792;SDS011;55778;54.346;10.210;2023-07-24T08:38:28;14.90;;;9.55;;
68792;SDS011;55778;54.346;10.210;2023-07-24T08:41:00;16.20;;;9.55;;
68792;SDS011;55778;54.346;10.210;2023-07-24T08:43:27;20.13;;;10.25;;
68792;SDS011;55778;54.346;10.210;2023-07-24T08:45:55;15.73;;;10.18;;
68792;SDS011;55778;54.346;10.210;2023-07-24T08:48:22;16.05;;;9.50;;
68792;SDS011;55778;54.346;10.210;2023-07-24T08:50:48;17.08;;;9.13;;
68792;SDS011;55778;54.346;10.210;2023-07-24T08:53:17;13.00;;;8.85;;
68792;SDS011;55778;54.346;10.210;2023-07-24T08:55:44;14.05;;;9.02;;
68792;SDS011;55778;54.346;10.210;2023-07-24T08:58:12;14.00;;;8.70;;
68792;SDS011;55778;54.346;10.210;2023-07-24T09:00:37;14.20;;;8.98;;
68792;SDS011;55778;54.346;10.210;2023-07-24T09:03:03;14.25;;;9.07;;
68792;SDS011;55778;54.346;10.210;2023-07-24T09:05:28;14.07;;;8.55;;
68792;SDS011;55778;54.346;10.210;2023-07-24T09:07:54;15.80;;;9.20;;
68792;SDS011;55778;54.346;10.210;2023-07-24T09:10:25;12.05;;;8.57;;
68792;SDS011;55778;54.346;10.210;2023-07-24T09:12:51;13.48;;;8.25;;
68792;SDS011;55778;54.346;10.210;2023-07-24T09:15:17;14.40;;;8.73;;
68792;SDS011;55778;54.346;10.210;2023-07-24T09:17:52;15.80;;;9.05;;
68792;SDS011;55778;54.346;10.210;2023-07-24T09:20:19;12.73;;;8.32;;
68792;SDS011;55778;54.346;10.210;2023-07-24T09:23:03;14.98;;;9.10;;
68792;SDS011;55778;54.346;10.210;2023-07-24T09:25:31;13.60;;;8.75;;
68792;SDS011;55778;54.346;10.210;2023-07-24T09:27:58;16.38;;;9.45;;
68792;SDS011;55778;54.346;10.210;2023-07-24T09:30:23;13.88;;;8.55;;
68792;SDS011;55778;54.346;10.210;2023-07-24T09:32:52;16.40;;;9.35;;
68792;SDS011;55778;54.346;10.210;2023-07-24T09:35:19;15.35;;;9.00;;
68792;SDS011;55778;54.346;10.210;2023-07-24T09:37:45;12.45;;;8.68;;
68792;SDS011;55778;54.346;10.210;2023-07-24T09:40:11;15.32;;;8.45;;
68792;SDS011;55778;54.346;10.210;2023-07-24T09:42:39;12.80;;;8.18;;
68792;SDS011;55778;54.346;10.210;2023-07-24T09:45:05;14.73;;;8.75;;
68792;SDS011;55778;54.346;10.210;2023-07-24T09:47:33;12.70;;;8.65;;
68792;SDS011;55778;54.346;10.210;2023-07-24T09:49:59;12.25;;;7.57;;
68792;SDS011;55778;54.346;10.210;2023-07-24T09:52:24;13.43;;;8.07;;
68792;SDS011;55778;54.346;10.210;2023-07-24T09:57:19;13.23;;;7.65;;
68792;SDS011;55778;54.346;10.210;2023-07-24T09:59:45;11.60;;;7.75;;
68792;SDS011;55778;54.346;10.210;2023-07-24T10:02:12;13.85;;;7.80;;
68792;SDS011;55778;54.346;10.210;2023-07-24T10:04:38;16.55;;;8.80;;
68792;SDS011;55778;54.346;10.210;2023-07-24T10:07:05;11.60;;;7.60;;
68792;SDS011;55778;54.346;10.210;2023-07-24T10:09:34;12.50;;;7.20;;
68792;SDS011;55778;54.346;10.210;2023-07-24T10:12:01;13.20;;;7.60;;
68792;SDS011;55778;54.346;10.210;2023-07-24T10:14:28;12.80;;;6.85;;
68792;SDS011;55778;54.346;10.210;2023-07-24T10:16:55;11.43;;;7.20;;
68792;SDS011;55778;54.346;10.210;2023-07-24T10:19:21;11.98;;;7.70;;
68792;SDS011;55778;54.346;10.210;2023-07-24T10:21:47;10.88;;;7.43;;
68792;SDS011;55778;54.346;10.210;2023-07-24T10:24:14;12.32;;;7.45;;
68792;SDS011;55778;54.346;10.210;2023-07-24T10:26:42;10.60;;;7.00;;
68792;SDS011;55778;54.346;10.210;2023-07-24T10:29:11;15.48;;;7.18;;
68792;SDS011;55778;54.346;10.210;2023-07-24T10:31:38;12.70;;;7.28;;
68792;SDS011;55778;54.346;10.210;2023-07-24T10:34:06;12.27;;;7.22;;
68792;SDS011;55778;54.346;10.210;2023-07-24T10:36:35;12.55;;;6.68;;
68792;SDS011;55778;54.346;10.210;2023-07-24T10:39:01;11.82;;;7.32;;
68792;SDS011;55778;54.346;10.210;2023-07-24T10:41:34;11.32;;;6.85;;
68792;SDS011;55778;54.346;10.210;2023-07-24T10:44:00;9.52;;;6.50;;
68792;SDS011;55778;54.346;10.210;2023-07-24T10:46:34;10.38;;;6.15;;
68792;SDS011;55778;54.346;10.210;2023-07-24T10:49:01;9.32;;;5.85;;
68792;SDS011;55778;54.346;10.210;2023-07-24T10:51:28;10.32;;;5.78;;
68792;SDS011;55778;54.346;10.210;2023-07-24T10:53:54;11.27;;;5.80;;
68792;SDS011;55778;54.346;10.210;2023-07-24T10:56:20;9.50;;;6.03;;
68792;SDS011;55778;54.346;10.210;2023-07-24T10:58:45;8.15;;;5.90;;
68792;SDS011;55778;54.346;10.210;2023-07-24T11:01:10;8.35;;;5.65;;
68792;SDS011;55778;54.346;10.210;2023-07-24T11:03:37;9.25;;;5.30;;
68792;SDS011;55778;54.346;10.210;2023-07-24T11:06:11;6.97;;;5.28;;
68792;SDS011;55778;54.346;10.210;2023-07-24T11:08:40;7.22;;;4.85;;
68792;SDS011;55778;54.346;10.210;2023-07-24T11:11:07;7.35;;;4.82;;
68792;SDS011;55778;54.346;10.210;2023-07-24T11:13:33;7.50;;;4.53;;
68792;SDS011;55778;54.346;10.210;2023-07-24T11:16:03;7.35;;;4.30;;
68792;SDS011;55778;54.346;10.210;2023-07-24T11:18:30;6.72;;;4.65;;
68792;SDS011;55778;54.346;10.210;2023-07-24T11:20:56;8.40;;;4.95;;
68792;SDS011;55778;54.346;10.210;2023-07-24T11:23:22;7.05;;;5.13;;
68792;SDS011;55778;54.346;10.210;2023-07-24T11:25:51;8.20;;;5.45;;
68792;SDS011;55778;54.346;10.210;2023-07-24T11:28:18;11.98;;;5.50;;
68792;SDS011;55778;54.346;10.210;2023-07-24T11:30:44;7.22;;;4.80;;
68792;SDS011;55778;54.346;10.210;2023-07-24T11:33:10;9.63;;;4.95;;
68792;SDS011;55778;54.346;10.210;2023-07-24T11:35:37;7.63;;;5.40;;
68792;SDS011;55778;54.346;10.210;2023-07-24T11:38:04;9.05;;;5.20;;
68792;SDS011;55778;54.346;10.210;2023-07-24T11:40:35;7.63;;;5.32;;
68792;SDS011;55778;54.346;10.210;2023-07-24T11:43:14;9.55;;;5.90;;
68792;SDS011;55778;54.346;10.210;2023-07-24T11:45:42;8.75;;;5.68;;
68792;SDS011;55778;54.346;10.210;2023-07-24T11:48:11;10.27;;;5.80;;
68792;SDS011;55778;54.346;10.210;2023-07-24T11:53:26;9.95;;;5.35;;
68792;SDS011;55778;54.346;10.210;2023-07-24T11:56:19;8.85;;;5.28;;
68792;SDS011;55778;54.346;10.210;2023-07-24T11:58:46;7.72;;;4.80;;
68792;SDS011;55778;54.346;10.210;2023-07-24T12:01:12;6.50;;;4.40;;
68792;SDS011;55778;54.346;10.210;2023-07-24T12:03:38;7.60;;;4.57;;
68792;SDS011;55778;54.346;10.210;2023-07-24T12:06:05;9.40;;;4.88;;
68792;SDS011;55778;54.346;10.210;2023-07-24T12:08:38;11.35;;;5.60;;
68792;SDS011;55778;54.346;10.210;2023-07-24T12:11:04;13.02;;;6.38;;
68792;SDS011;55778;54.346;10.210;2023-07-24T12:13:29;12.07;;;6.25;;
68792;SDS011;55778;54.346;10.210;2023-07-24T12:15:56;13.23;;;6.45;;
68792;SDS011;55778;54.346;10.210;2023-07-24T12:18:21;12.25;;;7.00;;
68792;SDS011;55778;54.346;10.210;2023-07-24T12:20:47;10.48;;;6.72;;
68792;SDS011;55778;54.346;10.210;2023-07-24T12:23:12;10.10;;;7.03;;
68792;SDS011;55778;54.346;10.210;2023-07-24T12:25:38;9.52;;;6.50;;
68792;SDS011;55778;54.346;10.210;2023-07-24T12:28:03;11.93;;;6.45;;
68792;SDS011;55778;54.346;10.210;2023-07-24T12:30:29;10.77;;;6.63;;
68792;SDS011;55778;54.346;10.210;2023-07-24T12:32:54;8.60;;;6.25;;
68792;SDS011;55778;54.346;10.210;2023-07-24T12:35:19;8.75;;;5.65;;
68792;SDS011;55778;54.346;10.210;2023-07-24T12:37:45;11.18;;;5.45;;
68792;SDS011;55778;54.346;10.210;2023-07-24T12:40:11;8.60;;;5.93;;
68792;SDS011;55778;54.346;10.210;2023-07-24T12:42:37;11.02;;;6.35;;
68792;SDS011;55778;54.346;10.210;2023-07-24T12:45:03;11.40;;;6.88;;
68792;SDS011;55778;54.346;10.210;2023-07-24T12:47:29;12.15;;;6.80;;
68792;SDS011;55778;54.346;10.210;2023-07-24T12:49:56;15.00;;;7.30;;
68792;SDS011;55778;54.346;10.210;2023-07-24T12:52:22;12.70;;;7.22;;
68792;SDS011;55778;54.346;10.210;2023-07-24T12:54:49;14.98;;;7.50;;
68792;SDS011;55778;54.346;10.210;2023-07-24T12:57:14;11.88;;;6.82;;
68792;SDS011;55778;54.346;10.210;2023-07-24T12:59:39;13.40;;;7.18;;
68792;SDS011;55778;54.346;10.210;2023-07-24T13:02:05;9.90;;;6.70;;
68792;SDS011;55778;54.346;10.210;2023-07-24T13:04:31;12.82;;;7.35;;
68792;SDS011;55778;54.346;10.210;2023-07-24T13:06:56;13.55;;;7.22;;
68792;SDS011;55778;54.346;10.210;2023-07-24T13:09:24;9.35;;;6.50;;
68792;SDS011;55778;54.346;10.210;2023-07-24T13:11:49;10.82;;;8.00;;
68792;SDS011;55778;54.346;10.210;2023-07-24T13:14:16;10.77;;;5.97;;
68792;SDS011;55778;54.346;10.210;2023-07-24T13:16:42;12.30;;;6.68;;
68792;SDS011;55778;54.346;10.210;2023-07-24T13:19:07;8.45;;;5.43;;
68792;SDS011;55778;54.346;10.210;2023-07-24T13:21:33;9.80;;;6.30;;
68792;SDS011;55778;54.346;10.210;2023-07-24T13:23:58;9.70;;;6.13;;
68792;SDS011;55778;54.346;10.210;2023-07-24T13:26:23;10.65;;;5.50;;
68792;SDS011;55778;54.346;10.210;2023-07-24T13:28:49;10.30;;;5.80;;
68792;SDS011;55778;54.346;10.210;2023-07-24T13:31:16;7.85;;;5.70;;
68792;SDS011;55778;54.346;10.210;2023-07-24T13:33:43;10.43;;;5.72;;
68792;SDS011;55778;54.346;10.210;2023-07-24T13:36:08;8.27;;;4.93;;
68792;SDS011;55778;54.346;10.210;2023-07-24T13:38:34;7.18;;;4.55;;
68792;SDS011;55778;54.346;10.210;2023-07-24T13:41:00;6.88;;;4.20;;
68792;SDS011;55778;54.346;10.210;2023-07-24T13:43:26;7.45;;;4.20;;
68792;SDS011;55778;54.346;10.210;2023-07-24T13:45:52;7.80;;;3.63;;
68792;SDS011;55778;54.346;10.210;2023-07-24T13:48:18;6.60;;;3.35;;
68792;SDS011;55778;54.346;10.210;2023-07-24T13:50:43;7.90;;;3.72;;
68792;SDS011;55778;54.346;10.210;2023-07-24T13:53:08;7.97;;;3.20;;
68792;SDS011;55778;54.346;10.210;2023-07-24T13:55:34;6.57;;;3.70;;
68792;SDS011;55778;54.346;10.210;2023-07-24T13:57:59;4.75;;;2.97;;
68792;SDS011;55778;54.346;10.210;2023-07-24T14:00:25;5.88;;;3.00;;
68792;SDS011;55778;54.346;10.210;2023-07-24T14:02:51;4.50;;;3.05;;
68792;SDS011;55778;54.346;10.210;2023-07-24T14:05:16;5.03;;;2.80;;
68792;SDS011;55778;54.346;10.210;2023-07-24T14:07:42;5.97;;;2.90;;
68792;SDS011;55778;54.346;10.210;2023-07-24T14:10:08;4.55;;;3.00;;
68792;SDS011;55778;54.346;10.210;2023-07-24T14:12:33;5.20;;;3.10;;
68792;SDS011;55778;54.346;10.210;2023-07-24T14:14:59;5.00;;;2.70;;
68792;SDS011;55778;54.346;10.210;2023-07-24T14:17:24;6.50;;;3.20;;
68792;SDS011;55778;54.346;10.210;2023-07-24T14:19:50;6.78;;;2.88;;
68792;SDS011;55778;54.346;10.210;2023-07-24T14:22:15;5.55;;;2.83;;
68792;SDS011;55778;54.346;10.210;2023-07-24T14:24:41;3.40;;;2.47;;
68792;SDS011;55778;54.346;10.210;2023-07-24T14:27:06;3.90;;;2.30;;
68792;SDS011;55778;54.346;10.210;2023-07-24T14:29:31;4.57;;;2.30;;